Hydro-Met Data Report Part 1
Issued by NWS Binghamton, NY

Home | Current Version | Previous Version | Text Only | Print | Product List | Glossary On
Versions: 1 2 3 4 5 6 7 8 9 10 11 12 13 14 15 16 17 18 19 20 21 22 23 24 25 26 27 28 29 30 31 32 33 34 35 36 37 38 39 40 41 42 43 44 45 46 47 48 49 50
000
SRUS51 KBGM 171637
RR1BGM

HYDROMETEOROLOGICAL DATA REPORT
NATIONAL WEATHER SERVICE BINGHAMTON NY

.A GNVN6 20140917 E DH0800 /HPIRZ 445.78 : GENEVA BCD
.A GNVN6 20140917 E DH0800 /PP 0.00 : GENEVA PRECIP
.A ICYN6 20140917 E DH0800 /HPIRZ 382.52 : ITHACA TERMINAL NGVD29
.A SCBN6 20140917 E DH0800 /QRIRZ 0.000 : LOCK CS-1 CAYUGA (MUD LOCK) DISCHARGE KCFS. (CFS = 0.000)
.A CAYN6 20140917 E DH0800 /HPIRZ 383.42 : LOCK CS-1 CAYUGA (MUD LOCK) UPPER GAGE EL. BCD
.A CAYN6 20140917 E DH0800 /PP 0.00 : LOCK CS-1 CAYUGA (MUD LOCK) PRECIP.
.A CLYN6 20140917 E DH0800 /HPIRZ 384.62 : LOCK E-26 CLYDE UPPER BCD 385.70
.A CYBN6 20140917 E DH0800 /HPIRZ 379.82 : LOCK E-26 CLYDE LOWER BCD 380.90
.A CLYN6 20140917 E DH0800 /QUIRZ 0.464 : CLYDE LOCK E-26 DISCHARGE KCFS. (CFS = 464.16)
.A MAYN6 20140917 E DH0800 /HPIRZ 380.80 : MAYS POINT LOCK E-25 UPPER BCD 380.80
.A MAZN6 20140917 E DH0800 /HPIRZ 374.40 : MAYS POINT LOCK E-25 LOWER BCD 374.40
.A MAYN6 20140917 E DH0800 /PP 0.00 : MAYS POINT PRECIP 0.00
.A OWSN6 20140917 E DH0800 /QUIRZ 0.044 : OWASCO LAKE DISCHARGE KCFS. (CFS = 44.00)
.A CRXN6 20140917 E DH0800 /HPIRZ 373.71 : CROSS LAKE BCD 374.76
.A CRXN6 20140917 E DH0800 /PP M : CROSS LAKE PRECIP M
.A BAAN6 20140917 E DH0800 /HPIRZ 373.02 :BALDWINSVILLE  E-24 UP BCD 374.10
.A BAXN6 20140917 E DH0800 /HPIRZ 363.27 :BALDWINSVILLE  E-24 LO BCD 364.35
.A BALN6 20140917 E DH0800 /HPIRZ 363.36 :BALDWINSVILLE USGS 1.98 FT
.A BALN6 20140917 E DH0800 /QUIRZ 1.26 :BALDWINSVILLE USGS DISCHARGE KCFS. (CFS = 1260.00)
.A BALN6 20140917 E DH0800 /PP 0.02 : BALWINSVILLE LOCK E-24 PRECIP 0.02
.A ONLN6 20140917 E DH0800 /HPIRZ 362.38 : ONONDAGA LAKE BCD 363.39
.A CLEN6 20140917 E DH0800 /HPIRZ 369.68 : CLEVELAND BCD 371.21
.A CLEN6 20140917 E DH0800 /PP M : CLEVELAND PRECIP #N/A
.A CAUN6 20140917 E DH0800 /HPIRZ 369.74 : BREWERTON LOCK E-23 UPPER BCD 370.80
.A BWTN6 20140917 E DH0800 /HPIRZ 363.04 : BREWERTON LOCK E-23 LOWER BCD 364.10
.A BWTN6 20140917 E DH0800 /QRIRZ 2.660 : BREWERTON LOCK E-23 DISCHARGE KCFS. (CFS = 2660.00 )
.A BWTN6 20140917 E DH0800 /HPIRP 363.22 : BREWERTON USGS 363.22
.A BWTN6 20140917 E DH0800 /SF 0.00 : BREWERTON SNOWFALL 0.00
.A BWTN6 20140917 E DH0800 /PP 0.01 : BREWERTON PRECIP 0.01
.A PXAN6 20140917 E DH0800 /HPIRZ M : PHOENIX LOCK O-1 UPPER BCD M
.A PXBN6 20140917 E DH0800 /HPIRZ M : PHOENIX LOCK O-1 LOWER BCD M
.A PXAN6 20140917 E DH0800 /QUIRZ 3.584 : PHOENIX LOCK O-1 DISCHARGE KCFS. (CFS = 3584.00 )



USA.gov is the U.S. government's official web portal to all federal, state and local government web resources and services.